Time;durP1;ratioP1;P1;durP2;ratioP2;P2;SDS_P1;SDS_P2;PMS_P1;PMS_P2;Temp;Humidity;BMP_temperature;BMP_pressure;BME280_temperature;BME280_humidity;BME280_pressure;Samples;Min_cycle;Max_cycle;Signal;HPM_P1;HPM_P2
2021/08/29 00:01:20;;;;;;;5.72;3.10;;;14.40;99.90;;;;;;5044461;28;20049;-84
2021/08/29 00:03:47;;;;;;;3.90;2.60;;;14.40;99.90;;;;;;5039997;28;20080;-84
2021/08/29 00:06:14;;;;;;;4.40;3.13;;;14.40;99.90;;;;;;5039648;28;20047;-84
2021/08/29 00:08:42;;;;;;;6.13;2.80;;;14.30;99.90;;;;;;5042686;28;20482;-84
2021/08/29 00:11:09;;;;;;;6.90;3.40;;;14.20;99.90;;;;;;5038768;28;20128;-85
2021/08/29 00:13:36;;;;;;;5.38;3.25;;;14.20;99.90;;;;;;5044480;28;20045;-84
2021/08/29 00:16:05;;;;;;;4.22;2.85;;;14.10;99.90;;;;;;5044308;28;20505;-84
2021/08/29 00:18:32;;;;;;;4.95;3.30;;;14.00;99.90;;;;;;5044134;28;20081;-84
2021/08/29 00:20:59;;;;;;;4.63;3.13;;;13.90;99.90;;;;;;5033487;28;20057;-84
2021/08/29 00:23:26;;;;;;;4.97;2.70;;;13.90;99.90;;;;;;5041151;28;20398;-84
2021/08/29 00:25:53;;;;;;;6.07;3.03;;;13.90;99.90;;;;;;5044442;28;20508;-84
2021/08/29 00:28:20;;;;;;;4.53;2.83;;;13.90;99.90;;;;;;5049665;28;20136;-84
2021/08/29 00:30:47;;;;;;;5.32;2.70;;;13.90;99.90;;;;;;5041834;28;20041;-84
2021/08/29 00:33:15;;;;;;;4.75;2.70;;;13.90;99.90;;;;;;5037513;28;20052;-84
2021/08/29 00:35:42;;;;;;;4.85;2.92;;;14.00;99.90;;;;;;5042659;28;20049;-84
2021/08/29 00:38:09;;;;;;;4.63;2.90;;;14.00;99.90;;;;;;5044829;28;20140;-84
2021/08/29 00:40:37;;;;;;;5.82;2.83;;;14.00;99.90;;;;;;5041571;28;20051;-84
2021/08/29 00:43:04;;;;;;;4.43;2.90;;;14.00;99.90;;;;;;5045982;28;20132;-84
2021/08/29 00:45:31;;;;;;;5.45;3.58;;;14.00;99.90;;;;;;5041023;28;20479;-84
2021/08/29 00:48:00;;;;;;;5.45;3.53;;;14.00;99.90;;;;;;5040483;28;20047;-83
2021/08/29 00:50:29;;;;;;;5.13;3.78;;;13.90;99.90;;;;;;5048977;28;20137;-86
2021/08/29 00:52:56;;;;;;;6.68;3.90;;;13.90;99.90;;;;;;5036719;28;20037;-86
2021/08/29 00:55:23;;;;;;;5.25;3.50;;;13.90;99.90;;;;;;5044142;28;20465;-86
2021/08/29 00:57:50;;;;;;;6.32;3.13;;;13.90;99.90;;;;;;5033065;28;20048;-85
2021/08/29 01:00:19;;;;;;;6.30;3.63;;;13.80;99.90;;;;;;5043868;28;20129;-86
2021/08/29 01:02:46;;;;;;;6.30;3.53;;;13.80;99.90;;;;;;5049427;28;20053;-85
2021/08/29 01:05:22;;;;;;;5.55;3.55;;;13.80;99.90;;;;;;5038742;28;20044;-85
2021/08/29 01:07:58;;;;;;;5.80;4.10;;;13.70;99.90;;;;;;5041640;28;20045;-85
2021/08/29 01:10:32;;;;;;;4.82;3.50;;;13.70;99.90;;;;;;5040330;28;20040;-85
2021/08/29 01:13:00;;;;;;;5.88;4.50;;;13.70;99.90;;;;;;5036807;28;20040;-86
2021/08/29 01:15:31;;;;;;;6.07;3.67;;;13.60;99.90;;;;;;5051928;28;20051;-85
2021/08/29 01:18:00;;;;;;;4.93;3.40;;;13.60;99.90;;;;;;5051936;28;20045;-85
2021/08/29 01:20:38;;;;;;;6.32;3.92;;;13.60;99.90;;;;;;5040993;28;20050;-85
2021/08/29 01:23:10;;;;;;;5.47;3.90;;;13.50;99.90;;;;;;5032881;28;20041;-85
2021/08/29 01:25:41;;;;;;;6.15;4.10;;;13.50;99.90;;;;;;5044570;28;20141;-85
2021/08/29 01:28:13;;;;;;;5.32;3.58;;;13.50;99.90;;;;;;5042583;28;20060;-85
2021/08/29 01:30:44;;;;;;;5.95;3.88;;;13.50;99.90;;;;;;5041270;28;20057;-85
2021/08/29 01:33:12;;;;;;;6.07;4.03;;;13.50;99.90;;;;;;5037447;28;20125;-85
2021/08/29 01:35:40;;;;;;;6.32;4.32;;;13.40;99.90;;;;;;5053952;28;20051;-85
2021/08/29 01:38:10;;;;;;;6.05;4.05;;;13.40;99.90;;;;;;5039447;28;20407;-85
2021/08/29 01:40:38;;;;;;;7.10;4.20;;;13.40;99.90;;;;;;5036543;28;20076;-85
2021/08/29 01:43:06;;;;;;;6.38;4.22;;;13.40;99.90;;;;;;5036682;28;20334;-85
2021/08/29 01:45:34;;;;;;;6.28;4.25;;;13.40;99.90;;;;;;5045267;28;20402;-85
2021/08/29 01:48:03;;;;;;;7.75;4.05;;;13.40;99.90;;;;;;5047247;28;20067;-86
2021/08/29 01:50:30;;;;;;;6.80;4.22;;;13.30;99.90;;;;;;5052223;28;20045;-85
2021/08/29 01:52:57;;;;;;;6.72;4.50;;;13.40;99.90;;;;;;5054386;28;20116;-86
2021/08/29 01:55:24;;;;;;;6.45;4.43;;;13.40;99.90;;;;;;5048598;28;20140;-87
2021/08/29 01:57:51;;;;;;;5.75;3.63;;;13.40;99.90;;;;;;5047033;28;20045;-88
2021/08/29 02:00:19;;;;;;;6.32;3.72;;;13.40;99.90;;;;;;5040926;28;20045;-85
2021/08/29 02:02:46;;;;;;;6.13;4.18;;;13.40;99.90;;;;;;5050903;28;20056;-88
2021/08/29 02:05:15;;;;;;;6.78;4.53;;;13.30;99.90;;;;;;5041886;28;20041;-88
2021/08/29 02:07:47;;;;;;;6.53;3.90;;;13.40;99.90;;;;;;5054338;28;20041;-87
2021/08/29 02:10:18;;;;;;;5.72;4.07;;;13.40;99.90;;;;;;5041471;28;20442;-88
2021/08/29 02:12:50;;;;;;;7.03;4.00;;;13.40;99.90;;;;;;5038781;28;20049;-84
2021/08/29 02:15:24;;;;;;;5.95;3.78;;;13.30;99.90;;;;;;5048765;28;20136;-85
2021/08/29 02:17:52;;;;;;;6.13;4.22;;;13.40;99.90;;;;;;5036283;28;20052;-86
2021/08/29 02:20:25;;;;;;;7.28;4.20;;;13.30;99.90;;;;;;5035614;28;20402;-88
2021/08/29 02:22:54;;;;;;;6.10;4.07;;;13.40;99.90;;;;;;5050960;28;20048;-87
2021/08/29 02:25:21;;;;;;;6.30;4.07;;;13.40;99.90;;;;;;5043077;28;20056;-87
2021/08/29 02:27:49;;;;;;;8.07;4.28;;;13.30;99.90;;;;;;5054318;28;20056;-87
2021/08/29 02:30:18;;;;;;;6.90;4.32;;;13.30;99.90;;;;;;5047811;28;20582;-87
2021/08/29 02:32:46;;;;;;;7.13;4.60;;;13.30;99.90;;;;;;5035603;28;20041;-86
2021/08/29 02:35:13;;;;;;;5.95;4.00;;;13.30;99.90;;;;;;5041402;28;20057;-85
2021/08/29 02:37:44;;;;;;;6.50;4.00;;;13.30;99.90;;;;;;5048039;28;20466;-86
2021/08/29 02:40:13;;;;;;;6.18;4.10;;;13.30;99.90;;;;;;5040652;28;20050;-85
2021/08/29 02:42:42;;;;;;;6.10;3.92;;;13.30;99.90;;;;;;5052319;28;20045;-87
2021/08/29 02:45:12;;;;;;;6.60;3.80;;;13.30;99.90;;;;;;5054976;28;20037;-86
2021/08/29 02:47:39;;;;;;;5.95;4.25;;;13.30;99.90;;;;;;5045100;28;20052;-88
2021/08/29 02:50:08;;;;;;;6.65;4.40;;;13.30;99.90;;;;;;5048070;28;20048;-87
2021/08/29 02:52:37;;;;;;;6.45;4.30;;;13.30;99.90;;;;;;5054546;28;20051;-87
2021/08/29 02:55:08;;;;;;;7.32;4.45;;;13.30;99.90;;;;;;5054723;28;20045;-86
2021/08/29 02:57:37;;;;;;;12.15;5.38;;;13.30;99.90;;;;;;5054585;28;20410;-86
2021/08/29 03:00:05;;;;;;;8.35;4.82;;;13.20;99.90;;;;;;5053809;28;20049;-86
2021/08/29 03:02:33;;;;;;;7.88;4.90;;;13.10;99.90;;;;;;5051959;28;20044;-86
2021/08/29 03:05:00;;;;;;;6.57;4.22;;;13.10;99.90;;;;;;5051924;28;20037;-86
2021/08/29 03:07:28;;;;;;;6.70;3.90;;;13.10;99.90;;;;;;5046955;28;20048;-88
2021/08/29 03:09:55;;;;;;;6.82;4.30;;;13.10;99.90;;;;;;5039660;28;20052;-87
2021/08/29 03:12:25;;;;;;;5.55;3.70;;;13.10;99.90;;;;;;5047083;28;20047;-87
2021/08/29 03:14:53;;;;;;;6.40;3.85;;;13.10;99.90;;;;;;5050732;28;20044;-86
2021/08/29 03:17:21;;;;;;;6.80;4.25;;;13.20;99.90;;;;;;5037817;28;20060;-86
2021/08/29 03:19:52;;;;;;;6.00;4.28;;;13.20;99.90;;;;;;5043668;28;20045;-86
2021/08/29 03:22:19;;;;;;;6.45;3.80;;;13.20;99.90;;;;;;5047692;28;20057;-85
2021/08/29 03:24:47;;;;;;;6.82;3.95;;;13.30;99.90;;;;;;5039095;28;20056;-86
2021/08/29 03:27:15;;;;;;;6.78;4.00;;;13.30;99.90;;;;;;5037694;28;20040;-88
2021/08/29 03:29:43;;;;;;;6.82;4.30;;;13.30;99.90;;;;;;5050317;28;20041;-88
2021/08/29 03:32:10;;;;;;;7.15;4.00;;;13.30;99.90;;;;;;5036726;28;20498;-87
2021/08/29 03:34:37;;;;;;;6.40;3.97;;;13.30;99.90;;;;;;5046334;28;20498;-87
2021/08/29 03:37:06;;;;;;;6.55;4.20;;;13.30;99.90;;;;;;5031575;28;20045;-89
2021/08/29 03:39:34;;;;;;;5.70;3.55;;;13.30;99.90;;;;;;5035667;28;20059;-85
2021/08/29 03:42:03;;;;;;;8.43;4.60;;;13.40;99.90;;;;;;5043848;28;20048;-87
2021/08/29 03:44:31;;;;;;;5.60;4.05;;;13.40;99.90;;;;;;5049909;28;20504;-87
2021/08/29 03:47:00;;;;;;;5.90;3.83;;;13.40;99.90;;;;;;5034748;28;20049;-87
2021/08/29 03:49:27;;;;;;;6.40;4.28;;;13.40;99.90;;;;;;5035666;28;20580;-87
2021/08/29 03:51:56;;;;;;;6.22;4.43;;;13.40;99.90;;;;;;5042133;28;20051;-86
2021/08/29 03:54:24;;;;;;;7.32;4.00;;;13.40;99.90;;;;;;5034476;28;20128;-84
2021/08/29 03:56:51;;;;;;;6.63;4.20;;;13.40;99.90;;;;;;5045047;28;20053;-85
2021/08/29 03:59:18;;;;;;;8.05;4.07;;;13.40;99.90;;;;;;5036332;28;20159;-83
2021/08/29 04:01:46;;;;;;;7.50;4.93;;;13.40;99.90;;;;;;5040965;28;20042;-85
2021/08/29 04:04:15;;;;;;;6.78;4.25;;;13.40;99.90;;;;;;5047580;28;20047;-85
2021/08/29 04:06:42;;;;;;;6.78;4.50;;;13.40;99.90;;;;;;5036545;28;20129;-85
2021/08/29 04:09:11;;;;;;;6.93;4.65;;;13.40;99.90;;;;;;5040321;28;20055;-84
2021/08/29 04:11:43;;;;;;;6.15;4.10;;;13.30;99.90;;;;;;5039121;28;20045;-84
2021/08/29 04:14:13;;;;;;;6.25;4.50;;;13.30;99.90;;;;;;5047009;28;20067;-83
2021/08/29 04:16:41;;;;;;;6.10;4.15;;;13.30;99.90;;;;;;5051417;28;20080;-83
2021/08/29 04:19:09;;;;;;;7.05;4.63;;;13.20;99.90;;;;;;5038464;28;20051;-84
2021/08/29 04:21:38;;;;;;;7.05;4.68;;;13.20;99.90;;;;;;5043760;28;20042;-84
2021/08/29 04:24:06;;;;;;;7.70;4.55;;;13.20;99.90;;;;;;5045903;28;20065;-85
2021/08/29 04:26:34;;;;;;;8.27;4.35;;;13.10;99.90;;;;;;5039230;28;20498;-85
2021/08/29 04:29:01;;;;;;;7.82;4.95;;;13.10;99.90;;;;;;5048274;28;20045;-85
2021/08/29 04:31:32;;;;;;;6.93;4.60;;;13.10;99.90;;;;;;5040830;28;20414;-83
2021/08/29 04:34:08;;;;;;;7.32;4.68;;;13.10;99.90;;;;;;5040356;28;20128;-84
2021/08/29 04:36:39;;;;;;;8.57;4.57;;;13.20;99.90;;;;;;5048775;28;20045;-83
2021/08/29 04:39:08;;;;;;;7.00;4.32;;;13.20;99.90;;;;;;5048527;28;20053;-83
2021/08/29 04:41:35;;;;;;;7.50;4.70;;;13.20;99.90;;;;;;5044465;28;20095;-84
2021/08/29 04:44:03;;;;;;;7.68;4.95;;;13.20;99.90;;;;;;5039970;28;20050;-84
2021/08/29 04:46:30;;;;;;;8.50;4.65;;;13.20;99.90;;;;;;5048683;28;20049;-84
2021/08/29 04:48:58;;;;;;;6.68;4.50;;;13.20;99.90;;;;;;5036390;28;20049;-84
2021/08/29 04:51:25;;;;;;;7.53;4.85;;;13.20;99.90;;;;;;5044664;28;20055;-85
2021/08/29 04:53:53;;;;;;;7.40;5.10;;;13.20;99.90;;;;;;5036132;28;20080;-85
2021/08/29 04:56:20;;;;;;;9.43;4.82;;;13.20;99.90;;;;;;5036047;28;20041;-84
2021/08/29 04:58:47;;;;;;;7.20;4.80;;;13.20;99.90;;;;;;5042836;28;20048;-85
2021/08/29 05:01:16;;;;;;;7.35;4.70;;;13.20;99.90;;;;;;5050319;28;20462;-85
2021/08/29 05:03:43;;;;;;;7.30;4.97;;;13.20;99.90;;;;;;5038728;28;20045;-83
2021/08/29 05:06:11;;;;;;;7.82;4.78;;;13.20;99.90;;;;;;5042762;28;20045;-83
2021/08/29 05:08:38;;;;;;;7.60;4.53;;;13.20;99.90;;;;;;5042225;28;20100;-82
2021/08/29 05:11:06;;;;;;;7.05;4.72;;;13.10;99.90;;;;;;5039866;28;20041;-82
2021/08/29 05:13:33;;;;;;;8.07;4.90;;;13.20;99.90;;;;;;5038430;28;20045;-85
2021/08/29 05:16:00;;;;;;;8.88;4.95;;;13.20;99.90;;;;;;5051770;28;20502;-86
2021/08/29 05:18:27;;;;;;;8.07;5.03;;;13.20;99.90;;;;;;5045027;28;20052;-90
2021/08/29 05:20:54;;;;;;;6.80;4.95;;;13.20;99.90;;;;;;5054093;28;20077;-90
2021/08/29 05:23:21;;;;;;;6.45;4.60;;;13.20;99.90;;;;;;5059295;28;20083;-90
2021/08/29 05:25:48;;;;;;;6.90;5.05;;;13.20;99.90;;;;;;5056035;28;20049;-88
2021/08/29 05:28:16;;;;;;;7.65;4.90;;;13.20;99.90;;;;;;5057411;28;20055;-89
2021/08/29 05:30:43;;;;;;;6.43;4.47;;;13.20;99.90;;;;;;5056224;28;20486;-89
2021/08/29 05:33:10;;;;;;;6.05;4.43;;;13.20;99.90;;;;;;5047616;28;20045;-90
2021/08/29 05:35:37;;;;;;;7.00;4.63;;;13.20;99.90;;;;;;5057037;28;20049;-90
2021/08/29 05:38:05;;;;;;;7.28;4.57;;;13.20;99.90;;;;;;5056855;28;20048;-89
2021/08/29 05:40:32;;;;;;;7.75;4.95;;;13.30;99.90;;;;;;5056957;28;20055;-88
2021/08/29 05:42:59;;;;;;;6.15;4.32;;;13.30;99.90;;;;;;5054687;28;20049;-88
2021/08/29 05:45:27;;;;;;;7.05;4.78;;;13.30;99.90;;;;;;5057296;28;20041;-90
2021/08/29 05:47:54;;;;;;;6.85;4.75;;;13.40;99.90;;;;;;5057149;28;20139;-88
2021/08/29 05:50:21;;;;;;;7.70;4.57;;;13.40;99.90;;;;;;5057410;28;20044;-88
2021/08/29 05:52:48;;;;;;;7.07;4.50;;;13.40;99.90;;;;;;5057015;28;20104;-89
2021/08/29 05:55:15;;;;;;;6.78;4.32;;;13.40;99.90;;;;;;5038205;28;20049;-91
2021/08/29 05:57:42;;;;;;;6.40;4.25;;;13.40;99.90;;;;;;5054507;28;20041;-90
2021/08/29 06:00:11;;;;;;;7.15;4.45;;;13.40;99.90;;;;;;5057337;28;20055;-92
2021/08/29 06:02:40;;;;;;;6.63;4.50;;;13.40;99.90;;;;;;5056759;28;20051;-91
2021/08/29 06:05:08;;;;;;;6.38;4.40;;;13.40;99.90;;;;;;5056998;28;20037;-88
2021/08/29 06:07:35;;;;;;;8.77;5.07;;;13.50;99.90;;;;;;5053550;28;20047;-87
2021/08/29 06:10:02;;;;;;;6.35;4.35;;;13.50;99.90;;;;;;5053794;28;20410;-88
2021/08/29 06:12:29;;;;;;;6.93;4.60;;;13.50;99.90;;;;;;5054114;28;20051;-87
2021/08/29 06:14:56;;;;;;;7.25;5.10;;;13.50;99.90;;;;;;5048819;28;20038;-88
2021/08/29 06:17:23;;;;;;;6.97;4.63;;;13.50;99.90;;;;;;5037628;28;20050;-86
2021/08/29 06:19:51;;;;;;;7.28;4.35;;;13.50;99.90;;;;;;5053812;28;20053;-87
2021/08/29 06:22:18;;;;;;;7.05;4.78;;;13.50;99.90;;;;;;5045476;28;20055;-87
2021/08/29 06:24:45;;;;;;;7.13;4.53;;;13.50;99.90;;;;;;5048024;28;20040;-90
2021/08/29 06:27:12;;;;;;;6.80;5.07;;;13.40;99.90;;;;;;5058703;28;20117;-94
2021/08/29 06:29:39;;;;;;;6.32;4.35;;;13.50;99.90;;;;;;5057929;28;20049;-91
2021/08/29 06:32:08;;;;;;;8.30;4.68;;;13.50;99.90;;;;;;5058667;28;20069;-90
2021/08/29 06:34:35;;;;;;;7.50;4.72;;;13.50;99.90;;;;;;5058799;28;20114;-91
2021/08/29 06:37:04;;;;;;;6.95;4.57;;;13.60;99.90;;;;;;5057870;28;20100;-91
2021/08/29 06:39:31;;;;;;;6.60;4.05;;;13.60;99.90;;;;;;5057752;28;20413;-93
2021/08/29 06:41:58;;;;;;;5.78;4.03;;;13.60;99.90;;;;;;5059198;28;20052;-90
2021/08/29 06:44:25;;;;;;;6.47;4.30;;;13.60;99.90;;;;;;5057064;28;20136;-90
2021/08/29 06:46:53;;;;;;;5.03;3.35;;;13.70;99.90;;;;;;5053073;28;20056;-87
2021/08/29 06:49:20;;;;;;;6.63;4.05;;;13.70;99.90;;;;;;5055305;28;20136;-89
2021/08/29 06:51:47;;;;;;;6.55;3.90;;;13.70;99.90;;;;;;5056307;28;20123;-90
2021/08/29 06:54:15;;;;;;;6.53;3.90;;;13.70;99.90;;;;;;5055711;28;20041;-87
2021/08/29 06:56:42;;;;;;;6.88;4.50;;;13.70;99.90;;;;;;5055442;28;20045;-88
2021/08/29 06:59:09;;;;;;;6.00;3.95;;;13.80;99.90;;;;;;5055598;28;20048;-89
2021/08/29 07:01:36;;;;;;;7.35;4.00;;;13.80;99.90;;;;;;5055792;28;20128;-89
2021/08/29 07:04:03;;;;;;;5.93;3.60;;;13.80;99.90;;;;;;5055940;28;20041;-90
2021/08/29 07:06:31;;;;;;;6.07;4.32;;;13.80;99.90;;;;;;5055682;28;20049;-90
2021/08/29 07:08:58;;;;;;;6.82;4.20;;;13.80;99.90;;;;;;5055063;28;20052;-89
2021/08/29 07:11:26;;;;;;;5.28;3.63;;;13.80;99.90;;;;;;5054759;28;20698;-85
2021/08/29 07:13:53;;;;;;;5.68;3.58;;;13.80;99.90;;;;;;5051762;28;20041;-85
2021/08/29 07:16:20;;;;;;;5.32;3.42;;;13.80;99.90;;;;;;5053166;28;20498;-85
2021/08/29 07:18:47;;;;;;;5.45;3.47;;;13.90;99.90;;;;;;5040171;28;20132;-84
2021/08/29 07:21:14;;;;;;;4.95;2.80;;;13.90;99.90;;;;;;5034260;28;20128;-84
2021/08/29 07:23:41;;;;;;;4.95;3.40;;;13.90;99.90;;;;;;5033558;28;20051;-84
2021/08/29 07:26:13;;;;;;;5.50;3.60;;;13.90;99.90;;;;;;5051032;28;20124;-89
2021/08/29 07:28:42;;;;;;;4.07;2.80;;;14.00;99.90;;;;;;5051171;28;20088;-88
2021/08/29 07:31:09;;;;;;;5.00;2.60;;;14.00;99.90;;;;;;5036548;28;20049;-88
2021/08/29 07:33:36;;;;;;;3.97;2.30;;;14.00;99.90;;;;;;5046902;28;20071;-87
2021/08/29 07:36:04;;;;;;;4.78;3.25;;;14.10;99.90;;;;;;5053752;28;20049;-87
2021/08/29 07:38:31;;;;;;;4.40;2.65;;;14.10;99.90;;;;;;5053924;28;20144;-88
2021/08/29 07:40:58;;;;;;;3.75;2.30;;;14.10;99.90;;;;;;5053022;28;20136;-89
2021/08/29 07:43:25;;;;;;;5.00;2.58;;;14.20;99.90;;;;;;5041840;28;20051;-87
2021/08/29 07:45:54;;;;;;;4.30;2.50;;;14.30;99.90;;;;;;5037634;28;20380;-88
2021/08/29 07:48:21;;;;;;;3.30;2.00;;;14.30;99.90;;;;;;5043257;28;20045;-89
2021/08/29 07:50:48;;;;;;;3.25;1.85;;;14.40;99.90;;;;;;5034422;28;20049;-89
2021/08/29 07:53:15;;;;;;;3.40;2.00;;;14.40;99.90;;;;;;5041321;28;20479;-89
2021/08/29 07:55:42;;;;;;;3.15;1.92;;;14.50;99.90;;;;;;5049471;28;20045;-86
2021/08/29 07:58:09;;;;;;;3.78;2.03;;;14.50;99.90;;;;;;5053559;28;20045;-82
2021/08/29 08:00:36;;;;;;;3.28;1.70;;;14.40;99.90;;;;;;5050225;28;20127;-86
2021/08/29 08:03:04;;;;;;;2.97;1.60;;;14.50;99.90;;;;;;5053413;28;20047;-86
2021/08/29 08:05:32;;;;;;;3.15;1.52;;;14.40;99.90;;;;;;5053402;28;20045;-86
2021/08/29 08:08:00;;;;;;;2.70;1.40;;;14.50;99.90;;;;;;5051198;28;20486;-85
2021/08/29 08:10:28;;;;;;;3.28;1.60;;;14.50;99.90;;;;;;5053336;28;20084;-86
2021/08/29 08:12:55;;;;;;;3.03;1.20;;;14.50;99.90;;;;;;5053129;28;20069;-85
2021/08/29 08:15:22;;;;;;;2.67;1.35;;;14.60;99.90;;;;;;5046877;28;20565;-88
2021/08/29 08:17:49;;;;;;;3.08;1.33;;;14.60;99.90;;;;;;5053407;28;20127;-89
2021/08/29 08:20:18;;;;;;;2.47;1.20;;;14.60;99.90;;;;;;5049298;28;20041;-87
2021/08/29 08:22:48;;;;;;;2.63;1.23;;;14.60;99.90;;;;;;5049005;28;20075;-87
2021/08/29 08:25:16;;;;;;;3.00;1.25;;;14.60;99.90;;;;;;5052427;28;20037;-86
2021/08/29 08:27:43;;;;;;;2.72;1.30;;;14.70;99.90;;;;;;5049647;28;20048;-88
2021/08/29 08:30:12;;;;;;;2.25;1.20;;;14.70;99.90;;;;;;5049295;28;20118;-88
2021/08/29 08:32:41;;;;;;;3.28;1.30;;;14.70;99.90;;;;;;5051041;28;20132;-87
2021/08/29 08:35:09;;;;;;;3.40;1.33;;;14.70;99.90;;;;;;5052532;28;20083;-88
2021/08/29 08:37:37;;;;;;;2.63;1.25;;;14.80;99.90;;;;;;5048353;28;20579;-87
2021/08/29 08:40:06;;;;;;;2.20;1.15;;;14.70;99.90;;;;;;5035049;28;20128;-85
2021/08/29 08:42:33;;;;;;;2.15;1.00;;;14.80;99.90;;;;;;5048036;28;20045;-88
2021/08/29 08:45:00;;;;;;;3.10;1.20;;;14.80;99.90;;;;;;5045941;28;20041;-88
2021/08/29 08:47:28;;;;;;;2.80;1.50;;;14.80;99.90;;;;;;5053342;28;20041;-89
2021/08/29 08:49:58;;;;;;;2.70;1.20;;;14.80;99.90;;;;;;5058417;28;20059;-89
2021/08/29 08:52:28;;;;;;;2.92;1.27;;;14.80;99.90;;;;;;5053033;28;20491;-88
2021/08/29 08:55:01;;;;;;;2.88;1.23;;;14.80;99.90;;;;;;5038862;28;20466;-88
2021/08/29 08:57:28;;;;;;;2.28;1.20;;;14.90;99.90;;;;;;5033853;28;20128;-90
2021/08/29 08:59:55;;;;;;;2.15;1.00;;;14.90;99.90;;;;;;5036288;28;20109;-93
2021/08/29 09:02:23;;;;;;;2.50;1.10;;;14.90;99.90;;;;;;5037992;28;20053;-90
2021/08/29 09:04:52;;;;;;;2.58;1.10;;;15.00;99.90;;;;;;5053073;28;20511;-88
2021/08/29 09:07:19;;;;;;;2.88;1.20;;;15.00;99.90;;;;;;5051816;28;20132;-85
2021/08/29 09:09:48;;;;;;;2.50;1.10;;;15.00;99.90;;;;;;5049548;28;20463;-80
2021/08/29 09:12:17;;;;;;;2.22;1.05;;;15.00;99.90;;;;;;5051085;28;20135;-81
2021/08/29 09:14:46;;;;;;;2.90;1.00;;;15.10;99.90;;;;;;5050255;28;20041;-81
2021/08/29 09:17:25;;;;;;;2.38;1.00;;;15.20;99.90;;;;;;5041806;28;20059;-83
2021/08/29 09:20:13;;;;;;;1.63;0.90;;;15.30;99.90;;;;;;5046097;28;20120;-81
2021/08/29 09:22:42;;;;;;;1.65;0.82;;;15.40;99.90;;;;;;5051085;28;20057;-90
2021/08/29 09:25:14;;;;;;;2.13;0.93;;;15.50;99.90;;;;;;5053913;28;20128;-92
2021/08/29 09:27:45;;;;;;;2.03;0.90;;;15.50;99.90;;;;;;5053892;28;20109;-90
2021/08/29 09:30:13;;;;;;;1.73;0.80;;;15.60;99.90;;;;;;5054046;28;20140;-92
2021/08/29 09:32:49;;;;;;;2.35;1.05;;;15.70;99.90;;;;;;5048162;28;20128;-90
2021/08/29 09:35:20;;;;;;;2.15;0.80;;;15.70;99.90;;;;;;5054294;28;20048;-93
2021/08/29 09:37:47;;;;;;;1.88;0.90;;;15.70;99.90;;;;;;5053995;28;20111;-91
2021/08/29 09:40:18;;;;;;;1.60;0.80;;;15.80;99.90;;;;;;5055723;28;20051;-91
2021/08/29 09:42:47;;;;;;;1.63;0.80;;;15.80;99.90;;;;;;5058589;28;20498;-88
2021/08/29 09:45:26;;;;;;;1.80;0.80;;;15.80;99.90;;;;;;5059206;28;20045;-90
2021/08/29 09:48:00;;;;;;;1.58;0.70;;;15.90;99.90;;;;;;5055230;28;20048;-91
2021/08/29 09:50:28;;;;;;;2.35;0.80;;;16.00;99.90;;;;;;5056797;28;20486;-84
2021/08/29 09:53:06;;;;;;;1.50;0.75;;;16.10;99.90;;;;;;5055039;28;20059;-89
2021/08/29 09:55:37;;;;;;;1.52;0.70;;;16.20;99.90;;;;;;5046864;28;20061;-87
2021/08/29 09:58:28;;;;;;;1.58;0.70;;;16.30;99.90;;;;;;5047010;28;20471;-87
2021/08/29 10:01:09;;;;;;;1.15;0.57;;;16.40;99.90;;;;;;5034735;28;20045;-91
2021/08/29 10:03:36;;;;;;;3.75;1.23;;;16.60;99.90;;;;;;5050138;28;20610;-87
2021/08/29 10:06:31;;;;;;;2.80;1.10;;;16.70;99.90;;;;;;5057691;28;20148;-88
2021/08/29 10:09:00;;;;;;;3.60;1.60;;;16.70;99.90;;;;;;5030464;28;20441;-85
2021/08/29 10:11:29;;;;;;;2.67;1.20;;;16.70;99.90;;;;;;5053431;28;20402;-87
2021/08/29 10:14:00;;;;;;;1.73;0.73;;;16.80;99.90;;;;;;5042463;28;20064;-88
2021/08/29 10:16:28;;;;;;;2.13;0.70;;;16.80;99.90;;;;;;5041989;28;20049;-87
2021/08/29 10:18:58;;;;;;;1.35;0.50;;;16.70;99.90;;;;;;5042943;28;20124;-89
2021/08/29 10:21:27;;;;;;;1.58;0.65;;;16.80;99.90;;;;;;5060571;28;20045;-88
2021/08/29 10:23:57;;;;;;;1.70;0.52;;;16.80;99.90;;;;;;5068561;28;20055;-91
2021/08/29 10:26:26;;;;;;;1.73;0.60;;;16.80;99.90;;;;;;5070780;28;20076;-91
2021/08/29 10:29:03;;;;;;;0.98;0.43;;;16.80;99.90;;;;;;5062476;28;20109;-90
2021/08/29 10:31:35;;;;;;;1.10;0.50;;;16.80;99.90;;;;;;5064860;28;20080;-89
2021/08/29 10:34:04;;;;;;;0.90;0.40;;;16.80;99.90;;;;;;5053996;28;20550;-88
2021/08/29 10:36:31;;;;;;;0.85;0.40;;;16.80;99.90;;;;;;5050295;28;20045;-88
2021/08/29 10:38:58;;;;;;;0.90;0.40;;;16.80;99.90;;;;;;5049994;28;20049;-83
2021/08/29 10:41:26;;;;;;;1.33;0.60;;;16.70;99.90;;;;;;5036813;28;20045;-82
2021/08/29 10:43:53;;;;;;;2.10;0.80;;;16.70;99.90;;;;;;5051225;28;20418;-82
2021/08/29 10:46:22;;;;;;;0.88;0.30;;;16.80;99.90;;;;;;5048689;28;20051;-83
2021/08/29 10:48:52;;;;;;;0.80;0.35;;;16.70;99.90;;;;;;5044727;28;20045;-83
2021/08/29 10:51:25;;;;;;;0.60;0.30;;;16.70;99.90;;;;;;5051130;28;20081;-83
2021/08/29 10:53:54;;;;;;;0.60;0.30;;;16.60;99.90;;;;;;5044531;28;20049;-83
2021/08/29 10:56:35;;;;;;;0.55;0.32;;;16.60;99.90;;;;;;5035206;28;20128;-80
2021/08/29 10:59:28;;;;;;;0.70;0.40;;;16.50;99.90;;;;;;5034351;28;20450;-82
2021/08/29 11:02:11;;;;;;;0.60;0.30;;;16.50;99.90;;;;;;5038905;28;20056;-84
2021/08/29 11:04:50;;;;;;;0.65;0.38;;;16.40;99.90;;;;;;5040862;28;20292;-83
2021/08/29 11:07:46;;;;;;;1.30;0.50;;;16.40;99.90;;;;;;5035750;28;20053;-83
2021/08/29 11:10:35;;;;;;;0.82;0.30;;;16.30;99.90;;;;;;5040080;28;20045;-84
2021/08/29 11:13:41;;;;;;;0.20;0.20;;;16.20;99.90;;;;;;5034231;28;20406;-86
2021/08/29 11:16:23;;;;;;;0.20;0.10;;;16.00;99.90;;;;;;5034451;28;20449;-82
2021/08/29 11:19:19;;;;;;;0.60;0.30;;;16.00;99.90;;;;;;5046691;28;20056;-83
2021/08/29 11:22:19;;;;;;;0.40;0.15;;;15.90;99.90;;;;;;5054291;28;20144;-82
2021/08/29 11:24:55;;;;;;;0.65;0.30;;;15.90;99.90;;;;;;5045213;28;20049;-83
2021/08/29 11:27:52;;;;;;;0.43;0.20;;;15.80;99.90;;;;;;5035322;28;20045;-83
2021/08/29 11:30:22;;;;;;;0.63;0.25;;;15.70;99.90;;;;;;5034216;28;20045;-82
2021/08/29 11:32:55;;;;;;;0.68;0.25;;;15.70;99.90;;;;;;5034214;28;20041;-82
2021/08/29 11:35:30;;;;;;;0.55;0.30;;;15.70;99.90;;;;;;5035058;28;20136;-83
2021/08/29 11:38:06;;;;;;;;;;;15.70;99.90;;;;;;5046833;28;20060;-83
2021/08/29 11:40:52;;;;;;;0.50;0.35;;;15.70;99.90;;;;;;5034153;28;19954;-83
2021/08/29 11:43:22;;;;;;;0.98;0.50;;;15.70;99.90;;;;;;5033837;28;20391;-82
2021/08/29 11:46:00;;;;;;;1.15;0.52;;;15.70;99.90;;;;;;5047898;28;20132;-83
2021/08/29 11:48:31;;;;;;;1.40;0.70;;;15.70;99.90;;;;;;5053718;28;20417;-83
2021/08/29 11:51:01;;;;;;;2.20;0.82;;;15.80;99.90;;;;;;5052119;28;20052;-83
2021/08/29 11:53:29;;;;;;;2.15;1.13;;;15.90;99.90;;;;;;5053765;28;20118;-83
2021/08/29 11:56:05;;;;;;;2.13;1.02;;;15.90;99.90;;;;;;5038440;28;20207;-83
2021/08/29 11:58:32;;;;;;;2.80;1.55;;;15.90;99.90;;;;;;5033539;28;20052;-83
2021/08/29 12:01:04;;;;;;;2.88;1.58;;;16.00;99.90;;;;;;5036213;28;20517;-84
2021/08/29 12:03:36;;;;;;;2.95;1.70;;;16.00;99.90;;;;;;5049058;28;20053;-84
2021/08/29 12:06:12;;;;;;;3.30;1.90;;;16.00;99.90;;;;;;5046047;28;20131;-83
2021/08/29 12:09:15;;;;;;;4.53;2.10;;;16.00;99.90;;;;;;5036680;28;20415;-84
2021/08/29 12:11:43;;;;;;;3.22;1.90;;;16.00;99.90;;;;;;5030443;28;20501;-83
2021/08/29 12:14:16;;;;;;;3.20;1.90;;;16.00;99.90;;;;;;5029011;28;20055;-83
2021/08/29 12:16:52;;;;;;;4.05;2.00;;;16.00;99.90;;;;;;5044867;28;20139;-83
2021/08/29 12:19:24;;;;;;;4.03;1.83;;;16.00;99.90;;;;;;5049586;28;20099;-83
2021/08/29 12:21:54;;;;;;;3.63;1.80;;;16.00;99.90;;;;;;5049233;28;20053;-83
2021/08/29 12:24:27;;;;;;;3.35;2.08;;;16.00;99.90;;;;;;5029487;28;20111;-83
2021/08/29 12:27:06;;;;;;;3.53;2.25;;;16.00;99.90;;;;;;5029483;28;20076;-82
2021/08/29 12:29:43;;;;;;;3.10;2.00;;;16.00;99.90;;;;;;5029263;28;20045;-83
2021/08/29 12:32:14;;;;;;;3.28;2.08;;;16.00;99.90;;;;;;5029067;28;20081;-82
2021/08/29 12:34:42;;;;;;;3.55;2.00;;;15.90;99.90;;;;;;5039855;28;20125;-83
2021/08/29 12:37:13;;;;;;;3.33;2.03;;;15.90;99.90;;;;;;5035956;28;20046;-83
2021/08/29 12:39:41;;;;;;;3.20;1.90;;;15.90;99.90;;;;;;5039300;28;20053;-83
2021/08/29 12:42:16;;;;;;;3.80;2.10;;;15.90;99.90;;;;;;5029952;28;20056;-83
2021/08/29 12:44:43;;;;;;;3.88;1.67;;;15.90;99.90;;;;;;5029332;28;20145;-84
2021/08/29 12:47:10;;;;;;;3.20;1.80;;;15.90;99.90;;;;;;5030055;28;20558;-83
2021/08/29 12:49:38;;;;;;;3.83;1.90;;;15.90;99.90;;;;;;5036444;28;20050;-83
2021/08/29 12:52:08;;;;;;;4.05;1.80;;;15.90;99.90;;;;;;5039110;28;20580;-84
2021/08/29 12:54:37;;;;;;;3.42;2.20;;;15.90;99.90;;;;;;5029561;28;20522;-83
2021/08/29 12:57:05;;;;;;;3.20;1.60;;;16.00;99.90;;;;;;5040942;28;20048;-83
2021/08/29 12:59:33;;;;;;;2.58;1.63;;;15.90;99.90;;;;;;5049299;28;20494;-83
2021/08/29 13:02:00;;;;;;;3.85;1.83;;;15.90;99.90;;;;;;5048687;28;20049;-83